sensor_id;sensor_type;location;lat;lon;timestamp;P1;durP1;ratioP1;P2;durP2;ratioP2
23995;SDS011;12207;50.076;8.848;2024-03-08T00:02:34;344.83;;;73.88;;
23995;SDS011;12207;50.076;8.848;2024-03-08T00:05:02;331.58;;;72.05;;
23995;SDS011;12207;50.076;8.848;2024-03-08T00:07:29;323.73;;;72.03;;
23995;SDS011;12207;50.076;8.848;2024-03-08T00:09:55;321.90;;;71.30;;
23995;SDS011;12207;50.076;8.848;2024-03-08T00:12:21;339.48;;;72.68;;
23995;SDS011;12207;50.076;8.848;2024-03-08T00:14:47;334.58;;;72.00;;
23995;SDS011;12207;50.076;8.848;2024-03-08T00:17:13;332.25;;;72.00;;
23995;SDS011;12207;50.076;8.848;2024-03-08T00:19:42;333.08;;;72.10;;
23995;SDS011;12207;50.076;8.848;2024-03-08T00:22:08;318.67;;;71.07;;
23995;SDS011;12207;50.076;8.848;2024-03-08T00:24:36;329.58;;;71.88;;
23995;SDS011;12207;50.076;8.848;2024-03-08T00:27:02;348.15;;;73.20;;
23995;SDS011;12207;50.076;8.848;2024-03-08T00:29:29;332.40;;;71.95;;
23995;SDS011;12207;50.076;8.848;2024-03-08T00:31:55;331.17;;;72.30;;
23995;SDS011;12207;50.076;8.848;2024-03-08T00:34:22;347.60;;;73.80;;
23995;SDS011;12207;50.076;8.848;2024-03-08T00:36:49;353.08;;;74.45;;
23995;SDS011;12207;50.076;8.848;2024-03-08T00:39:17;340.60;;;72.40;;
23995;SDS011;12207;50.076;8.848;2024-03-08T00:41:45;344.73;;;73.22;;
23995;SDS011;12207;50.076;8.848;2024-03-08T00:44:12;322.83;;;70.75;;
23995;SDS011;12207;50.076;8.848;2024-03-08T00:46:38;331.17;;;71.53;;
23995;SDS011;12207;50.076;8.848;2024-03-08T00:49:04;334.35;;;71.95;;
23995;SDS011;12207;50.076;8.848;2024-03-08T00:51:31;334.02;;;71.68;;
23995;SDS011;12207;50.076;8.848;2024-03-08T00:53:57;318.23;;;70.47;;
23995;SDS011;12207;50.076;8.848;2024-03-08T00:56:23;327.92;;;70.60;;
23995;SDS011;12207;50.076;8.848;2024-03-08T00:58:50;318.70;;;70.32;;
23995;SDS011;12207;50.076;8.848;2024-03-08T01:01:16;341.67;;;72.95;;
23995;SDS011;12207;50.076;8.848;2024-03-08T01:03:44;316.45;;;69.90;;
23995;SDS011;12207;50.076;8.848;2024-03-08T01:06:10;335.52;;;72.13;;
23995;SDS011;12207;50.076;8.848;2024-03-08T01:08:36;326.05;;;70.97;;
23995;SDS011;12207;50.076;8.848;2024-03-08T01:11:07;341.17;;;72.25;;
23995;SDS011;12207;50.076;8.848;2024-03-08T01:13:34;335.35;;;71.57;;
23995;SDS011;12207;50.076;8.848;2024-03-08T01:16:01;325.63;;;70.93;;
23995;SDS011;12207;50.076;8.848;2024-03-08T01:18:28;327.95;;;70.57;;
23995;SDS011;12207;50.076;8.848;2024-03-08T01:20:55;336.35;;;71.75;;
23995;SDS011;12207;50.076;8.848;2024-03-08T01:23:21;336.15;;;71.55;;
23995;SDS011;12207;50.076;8.848;2024-03-08T01:25:47;343.85;;;72.40;;
23995;SDS011;12207;50.076;8.848;2024-03-08T01:28:21;327.42;;;70.80;;
23995;SDS011;12207;50.076;8.848;2024-03-08T01:30:48;334.00;;;71.43;;
23995;SDS011;12207;50.076;8.848;2024-03-08T01:33:20;345.63;;;73.20;;
23995;SDS011;12207;50.076;8.848;2024-03-08T01:35:50;321.45;;;70.53;;
23995;SDS011;12207;50.076;8.848;2024-03-08T01:38:17;323.30;;;70.40;;
23995;SDS011;12207;50.076;8.848;2024-03-08T01:40:44;344.83;;;71.93;;
23995;SDS011;12207;50.076;8.848;2024-03-08T01:43:17;323.25;;;69.93;;
23995;SDS011;12207;50.076;8.848;2024-03-08T01:46:01;341.85;;;73.10;;
23995;SDS011;12207;50.076;8.848;2024-03-08T01:48:28;324.50;;;70.68;;
23995;SDS011;12207;50.076;8.848;2024-03-08T01:50:55;317.70;;;70.45;;
23995;SDS011;12207;50.076;8.848;2024-03-08T01:53:22;346.77;;;73.20;;
23995;SDS011;12207;50.076;8.848;2024-03-08T01:55:52;309.33;;;69.63;;
23995;SDS011;12207;50.076;8.848;2024-03-08T01:58:22;316.23;;;70.47;;
23995;SDS011;12207;50.076;8.848;2024-03-08T02:00:53;319.10;;;70.18;;
23995;SDS011;12207;50.076;8.848;2024-03-08T02:03:19;335.45;;;72.55;;
23995;SDS011;12207;50.076;8.848;2024-03-08T02:05:46;317.00;;;69.97;;
23995;SDS011;12207;50.076;8.848;2024-03-08T02:08:12;326.95;;;70.95;;
23995;SDS011;12207;50.076;8.848;2024-03-08T02:10:43;342.08;;;72.38;;
23995;SDS011;12207;50.076;8.848;2024-03-08T02:13:10;329.80;;;71.20;;
23995;SDS011;12207;50.076;8.848;2024-03-08T02:15:53;319.30;;;70.18;;
23995;SDS011;12207;50.076;8.848;2024-03-08T02:18:23;331.50;;;72.18;;
23995;SDS011;12207;50.076;8.848;2024-03-08T02:20:49;321.45;;;70.45;;
23995;SDS011;12207;50.076;8.848;2024-03-08T02:23:20;333.58;;;72.20;;
23995;SDS011;12207;50.076;8.848;2024-03-08T02:25:47;345.33;;;73.32;;
23995;SDS011;12207;50.076;8.848;2024-03-08T02:28:14;319.98;;;70.00;;
23995;SDS011;12207;50.076;8.848;2024-03-08T02:30:40;319.33;;;70.38;;
23995;SDS011;12207;50.076;8.848;2024-03-08T02:33:07;326.80;;;71.25;;
23995;SDS011;12207;50.076;8.848;2024-03-08T02:35:36;320.10;;;71.05;;
23995;SDS011;12207;50.076;8.848;2024-03-08T02:38:03;324.38;;;70.72;;
23995;SDS011;12207;50.076;8.848;2024-03-08T02:40:29;333.60;;;71.80;;
23995;SDS011;12207;50.076;8.848;2024-03-08T02:42:55;311.55;;;69.55;;
23995;SDS011;12207;50.076;8.848;2024-03-08T02:45:21;324.70;;;70.88;;
23995;SDS011;12207;50.076;8.848;2024-03-08T02:47:47;331.02;;;71.20;;
23995;SDS011;12207;50.076;8.848;2024-03-08T02:50:16;326.63;;;71.38;;
23995;SDS011;12207;50.076;8.848;2024-03-08T02:52:43;322.95;;;70.35;;
23995;SDS011;12207;50.076;8.848;2024-03-08T02:55:11;332.88;;;71.15;;
23995;SDS011;12207;50.076;8.848;2024-03-08T02:57:40;345.30;;;73.10;;
23995;SDS011;12207;50.076;8.848;2024-03-08T03:00:07;314.88;;;70.07;;
23995;SDS011;12207;50.076;8.848;2024-03-08T03:02:38;341.95;;;72.65;;
23995;SDS011;12207;50.076;8.848;2024-03-08T03:05:04;327.85;;;70.05;;
23995;SDS011;12207;50.076;8.848;2024-03-08T03:07:34;325.45;;;71.25;;
23995;SDS011;12207;50.076;8.848;2024-03-08T03:10:00;333.33;;;71.53;;
23995;SDS011;12207;50.076;8.848;2024-03-08T03:12:30;348.17;;;72.88;;
23995;SDS011;12207;50.076;8.848;2024-03-08T03:14:58;335.77;;;71.72;;
23995;SDS011;12207;50.076;8.848;2024-03-08T03:17:25;346.45;;;73.25;;
23995;SDS011;12207;50.076;8.848;2024-03-08T03:19:51;338.77;;;72.50;;
23995;SDS011;12207;50.076;8.848;2024-03-08T03:22:18;341.17;;;72.20;;
23995;SDS011;12207;50.076;8.848;2024-03-08T03:24:45;333.17;;;71.53;;
23995;SDS011;12207;50.076;8.848;2024-03-08T03:27:11;341.80;;;72.90;;
23995;SDS011;12207;50.076;8.848;2024-03-08T03:29:40;328.00;;;70.97;;
23995;SDS011;12207;50.076;8.848;2024-03-08T03:32:13;352.85;;;73.72;;
23995;SDS011;12207;50.076;8.848;2024-03-08T03:34:41;345.08;;;72.88;;
23995;SDS011;12207;50.076;8.848;2024-03-08T03:37:09;337.50;;;71.78;;
23995;SDS011;12207;50.076;8.848;2024-03-08T03:39:39;328.60;;;71.20;;
23995;SDS011;12207;50.076;8.848;2024-03-08T03:42:16;328.00;;;71.07;;
23995;SDS011;12207;50.076;8.848;2024-03-08T03:44:44;327.33;;;71.07;;
23995;SDS011;12207;50.076;8.848;2024-03-08T03:47:14;325.83;;;71.95;;
23995;SDS011;12207;50.076;8.848;2024-03-08T03:49:41;323.65;;;70.93;;
23995;SDS011;12207;50.076;8.848;2024-03-08T03:52:07;333.55;;;71.07;;
23995;SDS011;12207;50.076;8.848;2024-03-08T03:54:34;349.42;;;74.10;;
23995;SDS011;12207;50.076;8.848;2024-03-08T03:57:00;375.10;;;75.70;;
23995;SDS011;12207;50.076;8.848;2024-03-08T03:59:27;354.33;;;74.05;;
23995;SDS011;12207;50.076;8.848;2024-03-08T04:01:54;324.42;;;71.38;;
23995;SDS011;12207;50.076;8.848;2024-03-08T04:04:20;325.60;;;72.30;;
23995;SDS011;12207;50.076;8.848;2024-03-08T04:06:46;350.45;;;73.40;;
23995;SDS011;12207;50.076;8.848;2024-03-08T04:09:13;362.55;;;74.38;;
23995;SDS011;12207;50.076;8.848;2024-03-08T04:11:39;342.83;;;73.78;;
23995;SDS011;12207;50.076;8.848;2024-03-08T04:14:05;361.00;;;74.78;;
23995;SDS011;12207;50.076;8.848;2024-03-08T04:16:31;341.98;;;72.50;;
23995;SDS011;12207;50.076;8.848;2024-03-08T04:18:58;325.48;;;70.75;;
23995;SDS011;12207;50.076;8.848;2024-03-08T04:21:24;332.20;;;71.88;;
23995;SDS011;12207;50.076;8.848;2024-03-08T04:23:50;337.98;;;72.38;;
23995;SDS011;12207;50.076;8.848;2024-03-08T04:26:16;319.70;;;70.50;;
23995;SDS011;12207;50.076;8.848;2024-03-08T04:28:43;311.83;;;69.50;;
23995;SDS011;12207;50.076;8.848;2024-03-08T04:31:09;338.73;;;72.30;;
23995;SDS011;12207;50.076;8.848;2024-03-08T04:33:38;309.70;;;68.90;;
23995;SDS011;12207;50.076;8.848;2024-03-08T04:36:04;316.25;;;70.90;;
23995;SDS011;12207;50.076;8.848;2024-03-08T04:38:32;335.17;;;72.13;;
23995;SDS011;12207;50.076;8.848;2024-03-08T04:40:59;332.38;;;71.28;;
23995;SDS011;12207;50.076;8.848;2024-03-08T04:43:27;314.48;;;69.50;;
23995;SDS011;12207;50.076;8.848;2024-03-08T04:45:58;343.05;;;73.00;;
23995;SDS011;12207;50.076;8.848;2024-03-08T04:48:24;338.00;;;72.68;;
23995;SDS011;12207;50.076;8.848;2024-03-08T04:50:53;329.00;;;72.15;;
23995;SDS011;12207;50.076;8.848;2024-03-08T04:53:20;335.98;;;72.28;;
23995;SDS011;12207;50.076;8.848;2024-03-08T04:55:47;330.02;;;71.93;;
23995;SDS011;12207;50.076;8.848;2024-03-08T04:58:13;333.60;;;72.30;;
23995;SDS011;12207;50.076;8.848;2024-03-08T05:00:39;327.67;;;72.00;;
23995;SDS011;12207;50.076;8.848;2024-03-08T05:03:05;321.05;;;71.15;;
23995;SDS011;12207;50.076;8.848;2024-03-08T05:05:31;319.38;;;70.38;;
23995;SDS011;12207;50.076;8.848;2024-03-08T05:07:58;333.50;;;73.75;;
23995;SDS011;12207;50.076;8.848;2024-03-08T05:10:26;330.98;;;71.40;;
23995;SDS011;12207;50.076;8.848;2024-03-08T05:12:52;331.00;;;72.43;;
23995;SDS011;12207;50.076;8.848;2024-03-08T05:15:18;343.08;;;72.65;;
23995;SDS011;12207;50.076;8.848;2024-03-08T05:17:45;316.42;;;70.50;;
23995;SDS011;12207;50.076;8.848;2024-03-08T05:20:12;315.00;;;70.63;;
23995;SDS011;12207;50.076;8.848;2024-03-08T05:22:38;328.90;;;76.20;;
23995;SDS011;12207;50.076;8.848;2024-03-08T05:25:08;306.67;;;75.60;;
23995;SDS011;12207;50.076;8.848;2024-03-08T05:27:35;326.23;;;78.55;;
23995;SDS011;12207;50.076;8.848;2024-03-08T05:30:02;332.63;;;72.07;;
23995;SDS011;12207;50.076;8.848;2024-03-08T05:32:29;312.95;;;70.05;;
23995;SDS011;12207;50.076;8.848;2024-03-08T05:34:56;325.90;;;70.70;;
23995;SDS011;12207;50.076;8.848;2024-03-08T05:37:22;340.27;;;73.00;;
23995;SDS011;12207;50.076;8.848;2024-03-08T05:39:48;307.90;;;69.00;;
23995;SDS011;12207;50.076;8.848;2024-03-08T05:42:14;330.83;;;71.05;;
23995;SDS011;12207;50.076;8.848;2024-03-08T05:44:40;333.88;;;71.75;;
23995;SDS011;12207;50.076;8.848;2024-03-08T05:47:07;326.33;;;71.13;;
23995;SDS011;12207;50.076;8.848;2024-03-08T05:49:33;327.63;;;71.45;;
23995;SDS011;12207;50.076;8.848;2024-03-08T05:51:59;324.50;;;70.82;;
23995;SDS011;12207;50.076;8.848;2024-03-08T05:54:25;347.30;;;75.88;;
23995;SDS011;12207;50.076;8.848;2024-03-08T05:56:52;323.70;;;70.72;;
23995;SDS011;12207;50.076;8.848;2024-03-08T05:59:19;319.88;;;69.93;;
23995;SDS011;12207;50.076;8.848;2024-03-08T06:01:45;311.17;;;69.60;;
23995;SDS011;12207;50.076;8.848;2024-03-08T06:04:12;314.45;;;70.65;;
23995;SDS011;12207;50.076;8.848;2024-03-08T06:06:42;332.65;;;71.57;;
23995;SDS011;12207;50.076;8.848;2024-03-08T06:09:08;322.20;;;70.63;;
23995;SDS011;12207;50.076;8.848;2024-03-08T06:11:36;329.38;;;70.50;;
23995;SDS011;12207;50.076;8.848;2024-03-08T06:14:03;330.98;;;71.13;;
23995;SDS011;12207;50.076;8.848;2024-03-08T06:16:29;322.02;;;70.72;;
23995;SDS011;12207;50.076;8.848;2024-03-08T06:18:56;325.65;;;70.28;;
23995;SDS011;12207;50.076;8.848;2024-03-08T06:21:22;341.30;;;72.68;;
23995;SDS011;12207;50.076;8.848;2024-03-08T06:23:51;317.90;;;69.50;;
23995;SDS011;12207;50.076;8.848;2024-03-08T06:26:19;317.00;;;69.55;;
23995;SDS011;12207;50.076;8.848;2024-03-08T06:28:47;319.00;;;69.43;;
23995;SDS011;12207;50.076;8.848;2024-03-08T06:31:13;325.52;;;69.75;;
23995;SDS011;12207;50.076;8.848;2024-03-08T06:33:42;316.48;;;69.65;;
23995;SDS011;12207;50.076;8.848;2024-03-08T06:36:09;324.88;;;70.53;;
23995;SDS011;12207;50.076;8.848;2024-03-08T06:38:36;321.30;;;69.93;;
23995;SDS011;12207;50.076;8.848;2024-03-08T06:41:08;317.20;;;70.80;;
23995;SDS011;12207;50.076;8.848;2024-03-08T06:43:40;329.45;;;71.88;;
23995;SDS011;12207;50.076;8.848;2024-03-08T06:46:10;332.05;;;72.25;;
23995;SDS011;12207;50.076;8.848;2024-03-08T06:48:39;333.67;;;71.85;;
23995;SDS011;12207;50.076;8.848;2024-03-08T06:51:05;332.40;;;72.28;;
23995;SDS011;12207;50.076;8.848;2024-03-08T06:53:32;338.27;;;75.85;;
23995;SDS011;12207;50.076;8.848;2024-03-08T06:56:00;315.58;;;69.65;;
23995;SDS011;12207;50.076;8.848;2024-03-08T06:58:27;324.98;;;71.25;;
23995;SDS011;12207;50.076;8.848;2024-03-08T07:00:53;325.00;;;71.70;;
23995;SDS011;12207;50.076;8.848;2024-03-08T07:03:23;330.90;;;75.63;;
23995;SDS011;12207;50.076;8.848;2024-03-08T07:05:49;337.83;;;71.80;;
23995;SDS011;12207;50.076;8.848;2024-03-08T07:08:15;327.02;;;71.30;;
23995;SDS011;12207;50.076;8.848;2024-03-08T07:10:41;321.88;;;71.28;;
23995;SDS011;12207;50.076;8.848;2024-03-08T07:13:10;335.80;;;71.78;;
23995;SDS011;12207;50.076;8.848;2024-03-08T07:15:36;339.65;;;72.25;;
23995;SDS011;12207;50.076;8.848;2024-03-08T07:18:02;336.30;;;71.55;;
23995;SDS011;12207;50.076;8.848;2024-03-08T07:20:29;352.02;;;73.95;;
23995;SDS011;12207;50.076;8.848;2024-03-08T07:22:55;321.75;;;70.93;;
23995;SDS011;12207;50.076;8.848;2024-03-08T07:25:21;316.38;;;70.28;;
23995;SDS011;12207;50.076;8.848;2024-03-08T07:30:13;349.55;;;73.85;;
23995;SDS011;12207;50.076;8.848;2024-03-08T07:32:58;350.83;;;74.25;;
23995;SDS011;12207;50.076;8.848;2024-03-08T07:35:24;359.52;;;75.35;;
23995;SDS011;12207;50.076;8.848;2024-03-08T07:37:51;332.75;;;72.93;;
23995;SDS011;12207;50.076;8.848;2024-03-08T07:40:19;362.48;;;74.95;;
23995;SDS011;12207;50.076;8.848;2024-03-08T07:42:46;342.75;;;73.35;;
23995;SDS011;12207;50.076;8.848;2024-03-08T07:45:12;326.92;;;71.50;;
23995;SDS011;12207;50.076;8.848;2024-03-08T07:47:38;342.38;;;75.78;;
23995;SDS011;12207;50.076;8.848;2024-03-08T07:50:05;335.83;;;72.35;;
23995;SDS011;12207;50.076;8.848;2024-03-08T07:52:33;331.02;;;72.78;;
23995;SDS011;12207;50.076;8.848;2024-03-08T07:54:59;350.38;;;73.80;;
23995;SDS011;12207;50.076;8.848;2024-03-08T07:57:26;357.75;;;74.07;;
23995;SDS011;12207;50.076;8.848;2024-03-08T07:59:52;360.95;;;74.63;;
23995;SDS011;12207;50.076;8.848;2024-03-08T08:02:18;366.58;;;74.60;;
23995;SDS011;12207;50.076;8.848;2024-03-08T08:04:47;343.70;;;72.75;;
23995;SDS011;12207;50.076;8.848;2024-03-08T08:07:13;343.90;;;73.85;;
23995;SDS011;12207;50.076;8.848;2024-03-08T08:09:39;353.27;;;73.80;;
23995;SDS011;12207;50.076;8.848;2024-03-08T08:12:07;349.65;;;73.47;;
23995;SDS011;12207;50.076;8.848;2024-03-08T08:14:37;346.02;;;73.38;;
23995;SDS011;12207;50.076;8.848;2024-03-08T08:17:06;354.10;;;74.03;;
23995;SDS011;12207;50.076;8.848;2024-03-08T08:19:35;347.27;;;74.13;;
23995;SDS011;12207;50.076;8.848;2024-03-08T08:22:01;356.98;;;75.22;;
23995;SDS011;12207;50.076;8.848;2024-03-08T08:24:28;363.60;;;74.85;;
23995;SDS011;12207;50.076;8.848;2024-03-08T08:26:54;333.25;;;72.28;;
23995;SDS011;12207;50.076;8.848;2024-03-08T08:29:20;331.55;;;72.05;;
23995;SDS011;12207;50.076;8.848;2024-03-08T08:31:47;356.50;;;75.05;;
23995;SDS011;12207;50.076;8.848;2024-03-08T08:34:14;370.73;;;76.18;;
23995;SDS011;12207;50.076;8.848;2024-03-08T08:36:44;339.25;;;72.38;;
23995;SDS011;12207;50.076;8.848;2024-03-08T08:41:43;353.67;;;73.65;;
23995;SDS011;12207;50.076;8.848;2024-03-08T08:44:09;344.63;;;73.18;;
23995;SDS011;12207;50.076;8.848;2024-03-08T08:46:37;357.90;;;75.38;;
23995;SDS011;12207;50.076;8.848;2024-03-08T08:49:04;351.67;;;75.18;;
23995;SDS011;12207;50.076;8.848;2024-03-08T08:51:31;357.45;;;75.32;;
23995;SDS011;12207;50.076;8.848;2024-03-08T08:54:00;373.02;;;76.65;;
23995;SDS011;12207;50.076;8.848;2024-03-08T08:56:26;357.55;;;75.80;;
23995;SDS011;12207;50.076;8.848;2024-03-08T08:58:53;333.15;;;72.47;;
23995;SDS011;12207;50.076;8.848;2024-03-08T09:01:20;379.85;;;78.10;;
23995;SDS011;12207;50.076;8.848;2024-03-08T09:03:46;345.77;;;74.60;;
23995;SDS011;12207;50.076;8.848;2024-03-08T09:06:12;354.60;;;75.88;;
23995;SDS011;12207;50.076;8.848;2024-03-08T09:08:39;382.27;;;78.20;;
23995;SDS011;12207;50.076;8.848;2024-03-08T09:11:05;351.10;;;75.07;;
23995;SDS011;12207;50.076;8.848;2024-03-08T09:13:34;351.63;;;75.38;;
23995;SDS011;12207;50.076;8.848;2024-03-08T09:16:00;364.60;;;75.40;;
23995;SDS011;12207;50.076;8.848;2024-03-08T09:18:31;374.30;;;77.07;;
23995;SDS011;12207;50.076;8.848;2024-03-08T09:20:58;342.08;;;73.63;;
23995;SDS011;12207;50.076;8.848;2024-03-08T09:23:24;382.02;;;79.35;;
23995;SDS011;12207;50.076;8.848;2024-03-08T09:25:55;345.27;;;80.00;;
23995;SDS011;12207;50.076;8.848;2024-03-08T09:28:25;346.23;;;78.63;;
23995;SDS011;12207;50.076;8.848;2024-03-08T09:30:52;349.08;;;76.97;;
23995;SDS011;12207;50.076;8.848;2024-03-08T09:33:18;341.13;;;80.22;;
23995;SDS011;12207;50.076;8.848;2024-03-08T09:35:47;355.00;;;77.43;;
23995;SDS011;12207;50.076;8.848;2024-03-08T09:38:16;370.95;;;77.43;;
23995;SDS011;12207;50.076;8.848;2024-03-08T09:40:45;350.10;;;75.55;;
23995;SDS011;12207;50.076;8.848;2024-03-08T09:43:13;353.70;;;76.13;;
23995;SDS011;12207;50.076;8.848;2024-03-08T09:45:42;362.02;;;79.35;;
23995;SDS011;12207;50.076;8.848;2024-03-08T09:48:10;358.85;;;77.07;;
23995;SDS011;12207;50.076;8.848;2024-03-08T09:50:37;392.55;;;82.38;;
23995;SDS011;12207;50.076;8.848;2024-03-08T09:53:04;366.00;;;86.90;;
23995;SDS011;12207;50.076;8.848;2024-03-08T09:55:36;360.95;;;88.18;;
23995;SDS011;12207;50.076;8.848;2024-03-08T09:58:06;379.17;;;79.55;;
23995;SDS011;12207;50.076;8.848;2024-03-08T10:00:52;367.48;;;82.85;;
23995;SDS011;12207;50.076;8.848;2024-03-08T10:03:21;376.52;;;82.40;;
23995;SDS011;12207;50.076;8.848;2024-03-08T10:05:48;372.23;;;81.13;;
23995;SDS011;12207;50.076;8.848;2024-03-08T10:08:15;357.48;;;85.68;;
23995;SDS011;12207;50.076;8.848;2024-03-08T10:10:45;381.73;;;91.53;;
23995;SDS011;12207;50.076;8.848;2024-03-08T10:13:11;367.35;;;84.35;;
23995;SDS011;12207;50.076;8.848;2024-03-08T10:15:39;370.67;;;84.70;;
23995;SDS011;12207;50.076;8.848;2024-03-08T10:18:05;386.95;;;91.20;;
23995;SDS011;12207;50.076;8.848;2024-03-08T10:20:32;355.40;;;79.93;;
23995;SDS011;12207;50.076;8.848;2024-03-08T10:22:59;363.65;;;78.82;;
23995;SDS011;12207;50.076;8.848;2024-03-08T10:25:25;392.63;;;81.43;;
23995;SDS011;12207;50.076;8.848;2024-03-08T10:27:51;372.95;;;79.55;;
23995;SDS011;12207;50.076;8.848;2024-03-08T10:30:18;371.63;;;78.97;;
23995;SDS011;12207;50.076;8.848;2024-03-08T10:32:45;382.88;;;81.93;;
23995;SDS011;12207;50.076;8.848;2024-03-08T10:35:11;370.67;;;80.68;;
23995;SDS011;12207;50.076;8.848;2024-03-08T10:37:50;369.05;;;80.90;;
23995;SDS011;12207;50.076;8.848;2024-03-08T10:40:27;376.42;;;80.75;;
23995;SDS011;12207;50.076;8.848;2024-03-08T10:42:55;384.52;;;83.50;;
23995;SDS011;12207;50.076;8.848;2024-03-08T10:45:34;394.02;;;81.78;;
23995;SDS011;12207;50.076;8.848;2024-03-08T10:51:02;369.10;;;78.38;;
23995;SDS011;12207;50.076;8.848;2024-03-08T10:53:29;375.27;;;79.40;;
23995;SDS011;12207;50.076;8.848;2024-03-08T10:55:56;379.33;;;79.65;;
23995;SDS011;12207;50.076;8.848;2024-03-08T10:58:23;382.15;;;80.35;;
23995;SDS011;12207;50.076;8.848;2024-03-08T11:00:56;346.23;;;76.70;;
23995;SDS011;12207;50.076;8.848;2024-03-08T11:06:13;393.42;;;82.57;;
23995;SDS011;12207;50.076;8.848;2024-03-08T11:08:43;382.63;;;81.05;;
23995;SDS011;12207;50.076;8.848;2024-03-08T11:11:27;375.35;;;81.10;;
23995;SDS011;12207;50.076;8.848;2024-03-08T11:13:58;389.23;;;81.43;;
23995;SDS011;12207;50.076;8.848;2024-03-08T11:18:53;372.83;;;79.50;;
23995;SDS011;12207;50.076;8.848;2024-03-08T11:21:24;371.98;;;80.45;;
23995;SDS011;12207;50.076;8.848;2024-03-08T11:24:07;389.83;;;82.70;;
23995;SDS011;12207;50.076;8.848;2024-03-08T11:26:36;385.48;;;81.72;;
23995;SDS011;12207;50.076;8.848;2024-03-08T11:34:38;378.70;;;81.63;;
23995;SDS011;12207;50.076;8.848;2024-03-08T11:37:17;375.88;;;80.10;;
23995;SDS011;12207;50.076;8.848;2024-03-08T11:39:54;369.17;;;79.68;;
23995;SDS011;12207;50.076;8.848;2024-03-08T11:42:24;382.73;;;81.45;;
23995;SDS011;12207;50.076;8.848;2024-03-08T11:44:53;381.45;;;80.75;;
23995;SDS011;12207;50.076;8.848;2024-03-08T11:47:20;395.67;;;82.28;;
23995;SDS011;12207;50.076;8.848;2024-03-08T11:49:47;382.63;;;83.47;;
23995;SDS011;12207;50.076;8.848;2024-03-08T11:52:14;389.02;;;82.22;;
23995;SDS011;12207;50.076;8.848;2024-03-08T11:54:51;359.85;;;79.22;;
23995;SDS011;12207;50.076;8.848;2024-03-08T11:57:19;378.23;;;80.97;;
23995;SDS011;12207;50.076;8.848;2024-03-08T11:59:52;371.10;;;80.53;;
23995;SDS011;12207;50.076;8.848;2024-03-08T12:02:18;392.23;;;82.78;;
23995;SDS011;12207;50.076;8.848;2024-03-08T12:04:45;387.48;;;82.88;;
23995;SDS011;12207;50.076;8.848;2024-03-08T12:07:12;388.90;;;83.40;;
23995;SDS011;12207;50.076;8.848;2024-03-08T12:09:42;379.85;;;84.60;;
23995;SDS011;12207;50.076;8.848;2024-03-08T12:12:14;377.83;;;82.93;;
23995;SDS011;12207;50.076;8.848;2024-03-08T12:14:42;384.08;;;88.05;;
23995;SDS011;12207;50.076;8.848;2024-03-08T12:17:09;387.98;;;83.68;;
23995;SDS011;12207;50.076;8.848;2024-03-08T12:19:36;381.75;;;84.93;;
23995;SDS011;12207;50.076;8.848;2024-03-08T12:22:09;382.90;;;82.80;;
23995;SDS011;12207;50.076;8.848;2024-03-08T12:24:36;388.20;;;83.03;;
23995;SDS011;12207;50.076;8.848;2024-03-08T12:27:02;385.70;;;83.65;;
23995;SDS011;12207;50.076;8.848;2024-03-08T12:29:44;375.65;;;81.25;;
23995;SDS011;12207;50.076;8.848;2024-03-08T12:32:11;393.63;;;83.90;;
23995;SDS011;12207;50.076;8.848;2024-03-08T12:34:38;386.05;;;82.32;;
23995;SDS011;12207;50.076;8.848;2024-03-08T12:37:04;373.38;;;83.18;;
23995;SDS011;12207;50.076;8.848;2024-03-08T12:39:32;367.80;;;81.50;;
23995;SDS011;12207;50.076;8.848;2024-03-08T12:41:59;368.17;;;80.85;;
23995;SDS011;12207;50.076;8.848;2024-03-08T12:44:25;385.85;;;81.72;;
23995;SDS011;12207;50.076;8.848;2024-03-08T12:46:53;355.85;;;80.28;;
23995;SDS011;12207;50.076;8.848;2024-03-08T12:49:19;372.15;;;80.97;;
23995;SDS011;12207;50.076;8.848;2024-03-08T12:51:48;352.55;;;80.05;;
23995;SDS011;12207;50.076;8.848;2024-03-08T12:54:15;357.17;;;79.70;;
23995;SDS011;12207;50.076;8.848;2024-03-08T12:56:41;359.55;;;79.60;;
23995;SDS011;12207;50.076;8.848;2024-03-08T12:59:07;360.92;;;79.35;;
23995;SDS011;12207;50.076;8.848;2024-03-08T13:01:35;361.13;;;81.65;;
23995;SDS011;12207;50.076;8.848;2024-03-08T13:04:04;390.25;;;83.57;;
23995;SDS011;12207;50.076;8.848;2024-03-08T13:06:31;388.88;;;88.72;;
23995;SDS011;12207;50.076;8.848;2024-03-08T13:08:59;389.73;;;84.00;;
23995;SDS011;12207;50.076;8.848;2024-03-08T13:11:30;385.67;;;85.75;;
23995;SDS011;12207;50.076;8.848;2024-03-08T13:14:01;370.42;;;83.10;;
23995;SDS011;12207;50.076;8.848;2024-03-08T13:16:37;385.92;;;83.50;;
23995;SDS011;12207;50.076;8.848;2024-03-08T13:19:03;373.20;;;83.38;;
23995;SDS011;12207;50.076;8.848;2024-03-08T13:21:29;371.85;;;83.10;;
23995;SDS011;12207;50.076;8.848;2024-03-08T13:23:56;364.67;;;82.97;;
23995;SDS011;12207;50.076;8.848;2024-03-08T13:26:25;396.73;;;86.38;;
23995;SDS011;12207;50.076;8.848;2024-03-08T13:28:57;363.93;;;82.00;;
23995;SDS011;12207;50.076;8.848;2024-03-08T13:31:23;368.65;;;82.22;;
23995;SDS011;12207;50.076;8.848;2024-03-08T13:33:49;385.85;;;84.72;;
23995;SDS011;12207;50.076;8.848;2024-03-08T13:36:22;386.77;;;83.60;;
23995;SDS011;12207;50.076;8.848;2024-03-08T13:38:54;397.50;;;84.22;;
23995;SDS011;12207;50.076;8.848;2024-03-08T13:41:23;381.83;;;83.30;;
23995;SDS011;12207;50.076;8.848;2024-03-08T13:43:49;382.92;;;82.13;;
23995;SDS011;12207;50.076;8.848;2024-03-08T13:46:16;379.40;;;81.43;;
23995;SDS011;12207;50.076;8.848;2024-03-08T13:48:42;376.77;;;84.13;;
23995;SDS011;12207;50.076;8.848;2024-03-08T13:51:09;364.40;;;81.40;;
23995;SDS011;12207;50.076;8.848;2024-03-08T13:53:37;370.35;;;81.47;;
23995;SDS011;12207;50.076;8.848;2024-03-08T13:56:04;379.75;;;81.43;;
23995;SDS011;12207;50.076;8.848;2024-03-08T13:58:30;364.13;;;79.68;;
23995;SDS011;12207;50.076;8.848;2024-03-08T14:00:56;369.55;;;81.10;;
23995;SDS011;12207;50.076;8.848;2024-03-08T14:03:23;370.08;;;82.20;;
23995;SDS011;12207;50.076;8.848;2024-03-08T14:05:49;371.17;;;81.13;;
23995;SDS011;12207;50.076;8.848;2024-03-08T14:08:16;395.98;;;83.68;;
23995;SDS011;12207;50.076;8.848;2024-03-08T14:10:42;382.17;;;82.00;;
23995;SDS011;12207;50.076;8.848;2024-03-08T14:13:12;385.90;;;83.03;;
23995;SDS011;12207;50.076;8.848;2024-03-08T14:15:41;395.05;;;84.15;;
23995;SDS011;12207;50.076;8.848;2024-03-08T14:18:07;365.17;;;81.10;;
23995;SDS011;12207;50.076;8.848;2024-03-08T14:20:33;367.52;;;81.05;;
23995;SDS011;12207;50.076;8.848;2024-03-08T14:23:00;399.45;;;84.60;;
23995;SDS011;12207;50.076;8.848;2024-03-08T14:25:26;383.27;;;83.82;;
23995;SDS011;12207;50.076;8.848;2024-03-08T14:27:54;382.15;;;83.57;;
23995;SDS011;12207;50.076;8.848;2024-03-08T14:30:27;385.50;;;83.55;;
23995;SDS011;12207;50.076;8.848;2024-03-08T14:33:06;370.13;;;80.63;;